.
WxDataArchive / Data Records for 2015-10-21
2015-10-20 October 2015 2015-10-22

Data Records for Wednesday, 21 October 2015

Time	Temp	Chill	HIndex	Humid	Dewpt	 Wind 	HiWind	WindDir	Rain 	Barom
-----	----	-----	------	-----	-----	------	------	-------	-----	-----
00:00	58.3	58.3	58.3	43	35.9	0	0	---	0.00	30.157 
00:05	58.1	58.1	58.1	44	36.3	0	0	---	0.00	30.157 
00:10	57.8	57.8	57.8	45	36.6	0	0	---	0.00	30.157 
00:15	57.5	57.5	57.5	46	36.9	0	0	---	0.00	30.158 
00:20	57.0	57.0	57.0	46	36.4	0	0	---	0.00	30.158 
00:25	56.7	56.7	56.7	46	36.2	0	0	---	0.00	30.158 
00:30	56.6	56.6	56.6	47	36.6	0	0	---	0.00	30.162 
00:35	56.3	56.3	56.3	47	36.3	0	0	---	0.00	30.162 
00:40	56.2	56.2	56.2	47	36.2	0	0	---	0.00	30.162 
00:45	56.0	56.0	56.0	48	36.6	0	0	---	0.00	30.160 
00:50	55.7	55.7	55.7	49	36.8	0	0	---	0.00	30.160 
00:55	55.4	55.4	55.4	50	37.1	0	0	---	0.00	30.160 
01:00	55.0	55.0	55.0	51	37.2	0	0	---	0.00	30.162 
01:05	54.5	54.5	54.5	52	37.2	0	0	---	0.00	30.162 
01:10	54.2	54.2	54.2	53	37.4	0	0	---	0.00	30.162 
01:15	53.8	53.8	53.8	54	37.5	0	0	---	0.00	30.163 
01:20	53.3	53.3	53.3	54	37.1	0	0	---	0.00	30.163 
01:25	53.2	53.2	53.2	54	37.0	0	0	---	0.00	30.163 
01:30	53.2	53.2	53.2	54	37.0	0	0	---	0.00	30.160 
01:35	53.2	53.2	53.2	54	37.0	0	0	---	0.00	30.160 
01:40	53.2	53.2	53.2	54	37.0	0	0	---	0.00	30.160 
01:45	53.1	53.1	53.1	54	36.9	0	1	248	0.00	30.161 
01:50	52.9	52.9	52.9	55	37.2	0	0	---	0.00	30.161 
01:55	52.8	52.8	52.8	55	37.1	0	0	---	0.00	30.161 
02:00	52.5	52.5	52.5	56	37.3	0	0	---	0.00	30.162 
02:05	52.2	52.2	52.2	57	37.4	0	0	---	0.00	30.162 
02:10	51.9	51.9	51.9	58	37.6	0	0	---	0.00	30.162 
02:15	51.6	51.6	51.6	58	37.3	0	0	---	0.00	30.162 
02:20	51.3	51.3	51.3	58	37.0	0	0	---	0.00	30.162 
02:25	51.0	51.0	51.0	59	37.2	0	0	---	0.00	30.162 
02:30	50.5	50.5	50.5	60	37.1	0	0	---	0.00	30.162 
02:35	50.4	50.4	50.4	61	37.5	0	0	---	0.00	30.162 
02:40	50.1	50.1	50.1	62	37.6	0	0	---	0.00	30.162 
02:45	49.8	49.8	49.8	62	37.3	0	0	---	0.00	30.167 
02:50	49.6	49.6	49.6	64	37.9	0	0	---	0.00	30.167 
02:55	49.4	49.4	49.4	64	37.7	0	0	---	0.00	30.167 
03:00	49.2	49.2	49.2	65	37.9	0	0	---	0.00	30.168 
03:05	48.9	48.9	48.9	65	37.7	0	0	---	0.00	30.168 
03:10	48.8	48.8	48.8	65	37.6	0	0	---	0.00	30.168 
03:15	48.5	48.5	48.5	67	38.0	0	0	---	0.00	30.170 
03:20	48.3	48.3	48.3	68	38.2	0	0	---	0.00	30.170 
03:25	48.0	48.0	48.0	68	37.9	0	0	---	0.00	30.170 
03:30	47.9	47.9	47.9	69	38.2	0	0	---	0.00	30.176 
03:35	47.7	47.7	47.7	69	38.0	0	0	---	0.00	30.176 
03:40	47.6	47.6	47.6	70	38.3	0	0	---	0.00	30.176 
03:45	47.6	47.6	47.6	70	38.3	0	0	---	0.00	30.174 
03:50	47.6	47.6	47.6	70	38.3	0	0	---	0.00	30.174 
03:55	47.6	47.6	47.6	70	38.3	0	0	---	0.00	30.174 
04:00	47.6	47.6	47.6	71	38.7	0	0	---	0.00	30.172 
04:05	47.6	47.6	47.6	71	38.7	0	0	---	0.00	30.172 
04:10	47.6	47.6	47.6	72	39.0	0	0	---	0.00	30.172 
04:15	47.6	47.6	47.6	71	38.7	0	0	---	0.00	30.170 
04:20	47.6	47.6	47.6	71	38.7	0	0	---	0.00	30.170 
04:25	47.7	47.7	47.7	72	39.1	0	0	---	0.00	30.170 
04:30	47.6	47.6	47.6	72	39.0	0	0	---	0.00	30.168 
04:35	47.6	47.6	47.6	73	39.4	0	0	---	0.00	30.168 
04:40	47.4	47.4	47.4	72	38.8	0	0	---	0.00	30.168 
04:45	47.3	47.3	47.3	73	39.1	0	0	---	0.00	30.168 
04:50	47.3	47.3	47.3	74	39.4	0	0	---	0.00	30.168 
04:55	47.1	47.1	47.1	74	39.2	0	0	---	0.00	30.168 
05:00	47.1	47.1	47.1	75	39.6	0	0	---	0.00	30.169 
05:05	47.1	47.1	47.1	76	39.9	0	0	---	0.00	30.169 
05:10	47.1	47.1	47.1	76	39.9	0	0	---	0.00	30.169 
05:15	47.1	47.1	47.1	76	39.9	0	0	---	0.00	30.169 
05:20	47.4	47.4	47.4	76	40.2	0	0	---	0.00	30.169 
05:25	47.6	47.6	47.6	76	40.4	0	0	---	0.00	30.169 
05:30	47.9	47.9	47.9	75	40.4	0	0	---	0.00	30.168 
05:35	48.2	48.2	48.2	72	39.6	0	0	---	0.00	30.168 
05:40	48.6	48.6	48.6	70	39.3	0	0	---	0.00	30.168 
05:45	49.1	49.1	49.1	69	39.4	0	0	---	0.00	30.176 
05:50	49.4	49.4	49.4	69	39.7	0	0	---	0.00	30.176 
05:55	49.8	49.8	49.8	68	39.7	0	0	---	0.00	30.176 
06:00	50.1	50.1	50.1	67	39.6	0	0	---	0.00	30.175 
06:05	50.2	50.2	50.2	66	39.3	0	0	---	0.00	30.175 
06:10	50.5	50.5	50.5	66	39.6	0	0	---	0.00	30.175 
06:15	50.7	50.7	50.7	66	39.8	0	0	---	0.00	30.180 
06:20	50.7	50.7	50.7	67	40.1	0	0	---	0.00	30.180 
06:25	50.8	50.8	50.8	67	40.2	0	0	---	0.00	30.180 
06:30	50.8	50.8	50.8	67	40.2	0	0	---	0.00	30.182 
06:35	50.8	50.8	50.8	67	40.2	0	0	---	0.00	30.182 
06:40	50.8	50.8	50.8	67	40.2	0	0	---	0.00	30.182 
06:45	50.8	50.8	50.8	68	40.6	0	0	---	0.00	30.186 
06:50	51.0	51.0	51.0	68	40.8	0	0	---	0.00	30.186 
06:55	51.0	51.0	51.0	68	40.8	0	0	---	0.00	30.186 
07:00	51.0	51.0	51.0	69	41.2	0	0	---	0.00	30.184 
07:05	51.1	51.1	51.1	69	41.3	0	0	---	0.00	30.184 
07:10	51.1	51.1	51.1	67	40.5	0	0	---	0.00	30.184 
07:15	51.1	51.1	51.1	67	40.5	0	0	---	0.00	30.188 
07:20	51.3	51.3	51.3	66	40.3	0	0	---	0.00	30.188 
07:25	51.6	51.6	51.6	68	41.4	0	0	---	0.00	30.188 
07:30	51.7	51.7	51.7	65	40.3	0	0	---	0.00	30.184 
07:35	51.9	51.9	51.9	66	40.9	0	0	---	0.00	30.184 
07:40	52.0	52.0	52.0	65	40.6	0	0	---	0.00	30.184 
07:45	52.2	52.2	52.2	66	41.2	0	0	---	0.00	30.184 
07:50	52.3	52.3	52.3	66	41.3	0	0	---	0.00	30.184 
07:55	52.3	52.3	52.3	67	41.7	0	0	---	0.00	30.184 
08:00	52.3	52.3	52.3	67	41.7	0	0	---	0.00	30.185 
08:05	52.3	52.3	52.3	69	42.4	0	0	---	0.00	30.185 
08:10	52.3	52.3	52.3	69	42.4	0	0	---	0.00	30.185 
08:15	52.3	52.3	52.3	70	42.8	0	0	---	0.00	30.192 
08:20	52.2	52.2	52.2	70	42.7	0	0	---	0.00	30.192 
08:25	52.2	52.2	52.2	72	43.4	0	0	---	0.00	30.192 
08:30	52.2	52.2	52.2	72	43.4	0	0	---	0.00	30.198 
08:35	52.2	52.2	52.2	73	43.8	0	0	---	0.00	30.198 
08:40	52.2	52.2	52.2	73	43.8	0	0	---	0.00	30.198 
08:45	52.2	52.2	52.2	73	43.8	0	0	---	0.00	30.198 
08:50	52.2	52.2	52.2	74	44.2	0	0	---	0.00	30.198 
08:55	52.2	52.2	52.2	74	44.2	0	0	---	0.00	30.198 
09:00	52.2	52.2	52.2	72	43.4	0	0	---	0.00	30.195 
09:05	52.3	52.3	52.3	69	42.4	0	1	248	0.00	30.195 
09:10	52.5	52.5	52.5	70	43.0	0	1	248	0.00	30.195 
09:15	52.8	52.8	52.8	69	42.9	0	1	248	0.00	30.193 
09:20	53.1	53.1	53.1	68	42.8	0	0	---	0.00	30.193 
09:25	53.2	53.2	53.2	68	42.9	0	0	---	0.00	30.193 
09:30	53.5	53.5	53.5	68	43.2	0	0	---	0.00	30.195 
09:35	53.8	53.8	53.8	67	43.1	0	1	248	0.00	30.195 
09:40	54.2	54.2	54.2	65	42.7	0	1	248	0.00	30.195 
09:45	54.8	54.8	54.8	63	42.4	0	1	248	0.00	30.191 
09:50	55.3	55.3	55.3	62	42.5	0	1	248	0.00	30.191 
09:55	55.7	55.7	55.7	61	42.5	0	1	248	0.00	30.191 
10:00	56.0	56.0	56.0	60	42.3	0	0	---	0.00	30.195 
10:05	56.3	56.3	56.3	59	42.2	0	1	248	0.00	30.195 
10:10	56.6	56.6	56.6	58	42.0	0	1	248	0.00	30.195 
10:15	57.0	57.0	57.0	58	42.4	0	1	248	0.00	30.189 
10:20	57.6	57.6	57.6	57	42.5	0	2	248	0.00	30.189 
10:25	58.3	58.3	58.3	55	42.2	0	1	248	0.00	30.189 
10:30	58.7	58.7	58.7	55	42.6	0	1	248	0.00	30.185 
10:35	59.2	59.2	59.2	54	42.6	0	2	248	0.00	30.185 
10:40	59.8	59.8	59.8	54	43.1	0	1	248	0.00	30.185 
10:45	60.5	60.5	60.5	52	42.8	0	2	248	0.00	30.182 
10:50	61.3	61.3	61.3	52	43.5	0	1	248	0.00	30.182 
10:55	62.4	62.4	62.4	49	43.0	0	2	248	0.00	30.182 
11:00	62.9	62.9	62.9	48	42.9	1	3	248	0.00	30.175 
11:05	62.7	62.7	62.7	48	42.7	0	3	248	0.00	30.175 
11:10	62.4	62.4	62.4	49	43.0	0	1	248	0.00	30.175 
11:15	62.3	62.3	62.3	50	43.4	0	2	248	0.00	30.172 
11:20	62.6	62.6	62.6	50	43.7	0	1	248	0.00	30.172 
11:25	63.4	63.4	63.4	49	43.9	0	2	248	0.00	30.172 
11:30	64.2	64.2	64.2	47	43.5	0	2	248	0.00	30.160 
11:35	64.7	64.7	64.7	46	43.4	0	3	248	0.00	30.160 
11:40	65.2	65.2	65.2	46	43.9	0	2	248	0.00	30.160 
11:45	65.5	65.5	65.5	46	44.2	0	2	248	0.00	30.156 
11:50	65.6	65.6	65.6	46	44.3	0	1	248	0.00	30.156 
11:55	66.3	66.3	66.3	46	44.9	0	3	248	0.00	30.156 
12:00	66.8	66.8	66.8	45	44.8	0	2	270	0.00	30.159 
12:05	67.1	67.1	67.1	45	45.0	0	2	315	0.00	30.159 
12:10	67.8	67.8	67.8	44	45.1	0	2	315	0.00	30.159 
12:15	68.3	68.3	68.3	43	44.9	1	4	248	0.00	30.158 
12:20	68.8	68.8	68.8	43	45.4	1	3	248	0.00	30.158 
12:25	69.3	69.3	69.3	42	45.2	0	2	248	0.00	30.158 
12:30	69.8	69.8	69.8	43	46.3	0	1	202	0.00	30.153 
12:35	70.4	70.4	70.4	42	46.2	1	4	270	0.00	30.153 
12:40	70.3	70.3	70.3	42	46.1	2	4	248	0.00	30.153 
12:45	70.4	70.4	70.4	41	45.6	1	9	248	0.00	30.148 
12:50	70.8	70.8	70.8	41	45.9	1	3	248	0.00	30.148 
12:55	70.9	70.9	70.9	41	46.0	1	2	248	0.00	30.148 
13:00	71.3	71.3	71.3	41	46.4	1	3	248	0.00	30.142 
13:05	71.6	71.6	71.6	40	46.0	1	5	248	0.00	30.142 
13:10	71.8	71.8	71.8	39	45.5	1	3	270	0.00	30.142 
13:15	72.0	72.0	72.0	40	46.3	1	3	270	0.00	30.140 
13:20	72.0	72.0	72.0	40	46.3	1	4	270	0.00	30.140 
13:25	72.0	72.0	72.0	40	46.3	1	8	270	0.00	30.140 
13:30	72.1	72.1	72.1	39	45.8	1	4	248	0.00	30.129 
13:35	72.5	72.5	72.5	39	46.1	1	2	248	0.00	30.129 
13:40	72.7	72.7	72.7	39	46.3	1	3	248	0.00	30.129 
13:45	72.8	72.8	72.8	38	45.7	1	5	248	0.00	30.122 
13:50	73.2	73.2	73.2	39	46.7	1	3	248	0.00	30.122 
13:55	73.7	73.7	73.7	39	47.2	1	3	248	0.00	30.122 
14:00	74.0	74.0	74.0	38	46.8	1	5	270	0.00	30.111 
14:05	74.2	74.2	74.2	37	46.2	1	3	248	0.00	30.111 
14:10	74.0	74.0	74.0	38	46.8	0	2	248	0.00	30.111 
14:15	74.4	74.4	74.4	38	47.1	1	3	248	0.00	30.113 
14:20	74.6	74.6	74.6	37	46.6	1	4	248	0.00	30.113 
14:25	74.7	74.7	74.7	37	46.7	1	6	248	0.00	30.113 
14:30	74.7	74.7	74.7	38	47.4	1	4	270	0.00	30.107 
14:35	74.7	74.7	74.7	39	48.1	1	4	248	0.00	30.107 
14:40	74.7	74.7	74.7	38	47.4	1	4	68	0.00	30.107 
14:45	74.7	74.7	74.7	39	48.1	1	3	270	0.00	30.100 
14:50	74.9	74.9	74.9	39	48.3	0	2	270	0.00	30.100 
14:55	75.1	75.1	77.4	37	47.0	1	4	90	0.00	30.100 
15:00	75.1	75.1	77.4	38	47.7	0	4	270	0.00	30.103 
15:05	75.3	75.3	77.5	37	47.2	1	4	248	0.00	30.103 
15:10	75.4	75.4	77.5	38	48.0	0	2	248	0.00	30.103 
15:15	75.6	75.6	77.6	38	48.2	1	7	270	0.00	30.101 
15:20	75.6	75.6	77.6	37	47.5	1	5	248	0.00	30.101 
15:25	75.6	75.6	77.6	37	47.5	1	4	270	0.00	30.101 
15:30	75.4	75.4	77.5	37	47.3	1	3	270	0.00	30.100 
15:35	75.6	75.6	77.6	37	47.5	1	4	270	0.00	30.100 
15:40	75.6	75.6	77.5	36	46.7	1	4	270	0.00	30.100 
15:45	75.8	75.8	77.6	36	46.9	1	3	270	0.00	30.095 
15:50	76.1	76.1	77.7	37	47.9	0	2	292	0.00	30.095 
15:55	76.3	76.3	77.7	35	46.6	1	4	248	0.00	30.095 
16:00	76.3	76.3	77.7	35	46.6	1	4	270	0.00	30.094 
16:05	76.0	76.0	77.6	35	46.4	1	5	248	0.00	30.094 
16:10	75.4	75.4	77.4	36	46.6	1	3	248	0.00	30.094 
16:15	75.1	75.1	77.4	37	47.0	1	3	248	0.00	30.096 
16:20	74.9	74.9	74.9	37	46.9	1	5	248	0.00	30.096 
16:25	74.9	74.9	74.9	37	46.9	1	4	248	0.00	30.096 
16:30	74.9	74.9	74.9	36	46.1	1	4	248	0.00	30.093 
16:35	74.9	74.9	74.9	37	46.9	1	3	248	0.00	30.093 
16:40	74.7	74.7	74.7	37	46.7	1	5	248	0.00	30.093 
16:45	74.7	74.7	74.7	36	46.0	1	4	248	0.00	30.089 
16:50	74.7	74.7	74.7	37	46.7	1	5	248	0.00	30.089 
16:55	74.7	74.7	74.7	37	46.7	0	2	248	0.00	30.089 
17:00	74.7	74.7	74.7	38	47.4	1	3	248	0.00	30.092 
17:05	74.6	74.6	74.6	38	47.3	1	3	225	0.00	30.092 
17:10	74.6	74.6	74.6	38	47.3	1	3	270	0.00	30.092 
17:15	74.4	74.4	74.4	38	47.1	0	5	270	0.00	30.086 
17:20	74.4	74.4	74.4	38	47.1	0	3	270	0.00	30.086 
17:25	74.2	74.2	74.2	38	46.9	1	6	270	0.00	30.086 
17:30	74.0	74.0	74.0	38	46.8	1	7	135	0.00	30.083 
17:35	74.0	74.0	74.0	39	47.5	0	2	248	0.00	30.083 
17:40	73.9	73.9	73.9	39	47.4	0	3	248	0.00	30.083 
17:45	73.7	73.7	73.7	39	47.2	1	3	248	0.00	30.082 
17:50	73.5	73.5	73.5	39	47.0	1	3	270	0.00	30.082 
17:55	73.2	73.2	73.2	40	47.4	0	2	270	0.00	30.082 
18:00	73.0	73.0	73.0	40	47.2	0	3	270	0.00	30.082 
18:05	72.8	72.8	72.8	40	47.1	0	2	270	0.00	30.082 
18:10	72.8	72.8	72.8	40	47.1	0	1	270	0.00	30.082 
18:15	72.7	72.7	72.7	40	47.0	0	1	270	0.00	30.080 
18:20	72.7	72.7	72.7	40	47.0	0	2	270	0.00	30.080 
18:25	72.7	72.7	72.7	40	47.0	0	2	270	0.00	30.080 
18:30	72.5	72.5	72.5	41	47.4	0	3	270	0.00	30.081 
18:35	72.5	72.5	72.5	40	46.8	0	1	270	0.00	30.081 
18:40	72.3	72.3	72.3	41	47.3	0	1	270	0.00	30.081 
18:45	72.0	72.0	72.0	41	47.0	0	1	270	0.00	30.080 
18:50	71.8	71.8	71.8	41	46.8	0	1	270	0.00	30.080 
18:55	71.6	71.6	71.6	42	47.3	0	3	270	0.00	30.080 
19:00	71.3	71.3	71.3	41	46.4	1	5	270	0.00	30.073 
19:05	71.3	71.3	71.3	41	46.4	0	4	248	0.00	30.073 
19:10	71.1	71.1	71.1	42	46.8	0	1	338	0.00	30.073 
19:15	71.1	71.1	71.1	41	46.2	0	4	315	0.00	30.082 
19:20	70.9	70.9	70.9	42	46.6	0	3	248	0.00	30.082 
19:25	70.9	70.9	70.9	42	46.6	0	3	248	0.00	30.082 
19:30	70.9	70.9	70.9	42	46.6	0	2	248	0.00	30.084 
19:35	70.8	70.8	70.8	42	46.6	0	3	248	0.00	30.084 
19:40	70.6	70.6	70.6	43	47.0	0	2	248	0.00	30.084 
19:45	70.4	70.4	70.4	43	46.8	0	2	248	0.00	30.083 
19:50	70.3	70.3	70.3	43	46.7	0	4	90	0.00	30.083 
19:55	70.1	70.1	70.1	43	46.6	0	3	225	0.00	30.083 
20:00	69.9	69.9	69.9	43	46.4	0	3	225	0.00	30.081 
20:05	69.8	69.8	69.8	44	46.9	1	4	248	0.00	30.081 
20:10	69.8	69.8	69.8	44	46.9	0	1	248	0.00	30.081 
20:15	69.6	69.6	69.6	44	46.7	0	1	248	0.00	30.068 
20:20	69.3	69.3	69.3	45	47.0	0	1	248	0.00	30.068 
20:25	69.1	69.1	69.1	45	46.9	1	3	68	0.00	30.068 
20:30	69.1	69.1	69.1	45	46.9	0	4	68	0.00	30.066 
20:35	69.1	69.1	69.1	45	46.9	0	1	68	0.00	30.066 
20:40	68.9	68.9	68.9	45	46.7	0	2	45	0.00	30.066 
20:45	68.9	68.9	68.9	45	46.7	0	3	248	0.00	30.067 
20:50	68.9	68.9	68.9	45	46.7	0	3	292	0.00	30.067 
20:55	68.9	68.9	68.9	46	47.3	0	3	292	0.00	30.067 
21:00	68.8	68.8	68.8	46	47.2	0	4	270	0.00	30.076 
21:05	68.8	68.8	68.8	46	47.2	0	2	248	0.00	30.076 
21:10	68.8	68.8	68.8	46	47.2	0	1	248	0.00	30.076 
21:15	68.6	68.6	68.6	46	47.0	0	2	248	0.00	30.080 
21:20	68.6	68.6	68.6	46	47.0	0	2	248	0.00	30.080 
21:25	68.4	68.4	68.4	46	46.8	0	2	248	0.00	30.080 
21:30	68.4	68.4	68.4	46	46.8	0	2	248	0.00	30.088 
21:35	68.4	68.4	68.4	46	46.8	1	6	248	0.00	30.088 
21:40	68.4	68.4	68.4	46	46.8	0	2	248	0.00	30.088 
21:45	68.4	68.4	68.4	46	46.8	0	1	248	0.00	30.093 
21:50	68.3	68.3	68.3	46	46.7	0	3	248	0.00	30.093 
21:55	68.1	68.1	68.1	46	46.5	0	1	248	0.00	30.093 
22:00	67.9	67.9	67.9	47	46.9	0	2	248	0.00	30.095 
22:05	67.8	67.8	67.8	47	46.8	0	1	248	0.00	30.095 
22:10	67.6	67.6	67.6	47	46.6	0	1	248	0.00	30.095 
22:15	67.4	67.4	67.4	48	47.0	0	1	248	0.00	30.091 
22:20	67.3	67.3	67.3	48	46.9	0	1	248	0.00	30.091 
22:25	67.1	67.1	67.1	48	46.7	0	1	248	0.00	30.091 
22:30	66.9	66.9	66.9	49	47.1	0	1	248	0.00	30.091 
22:35	66.9	66.9	66.9	49	47.1	0	3	248	0.00	30.091 
22:40	66.8	66.8	66.8	49	47.0	0	1	248	0.00	30.091 
22:45	66.8	66.8	66.8	49	47.0	0	1	248	0.00	30.093 
22:50	66.8	66.8	66.8	49	47.0	0	2	248	0.00	30.093 
22:55	66.6	66.6	66.6	49	46.8	0	1	248	0.00	30.093 
23:00	66.6	66.6	66.6	50	47.4	0	1	248	0.00	30.097 
23:05	66.4	66.4	66.4	50	47.2	0	2	315	0.00	30.097 
23:10	66.3	66.3	66.3	50	47.1	0	1	315	0.00	30.097 
23:15	66.1	66.1	66.1	50	46.9	0	1	315	0.00	30.097 
23:20	66.1	66.1	66.1	51	47.4	0	1	292	0.00	30.097 
23:25	66.0	66.0	66.0	51	47.3	0	1	292	0.00	30.097 
23:30	65.8	65.8	65.8	51	47.2	0	1	292	0.00	30.105 
23:35	65.6	65.6	65.6	51	47.0	0	1	292	0.00	30.105 
23:40	65.6	65.6	65.6	52	47.5	0	2	292	0.00	30.105 
23:45	65.8	65.8	65.8	51	47.2	0	1	292	0.00	30.106 
23:50	65.8	65.8	65.8	51	47.2	0	2	292	0.00	30.106 
23:55	65.8	65.8	65.8	52	47.7	0	1	248	0.00	30.106 

CoCoRaHS
IN-AL-39
A2 Web Hosting
Creative Commons License
GoDaddy
search engine by freefind advanced

loaded 2018-11-13 17:31:30 • last modified 2010-11-18 10:43:29
Privacy PolicyDisclaimer
• wx.awcolley.com is powered by PmWiki v.2002016 •
• all content (unless otherwise noted) © 2018 A W Colley